Time;durP1;ratioP1;P1;durP2;ratioP2;P2;SDS_P1;SDS_P2;PMS_P1;PMS_P2;Temp;Humidity;BMP_temperature;BMP_pressure;BME280_temperature;BME280_humidity;BME280_pressure;Samples;Min_cycle;Max_cycle;Signal;HPM_P1;HPM_P2
2022/10/09 00:02:16;;;;;;;;;;;;;;;18.87;51.91;102509.34;5025103;28;19909;-58
2022/10/09 00:04:41;;;;;;;;;;;;;;;18.88;51.76;102502.09;5025296;28;20489;-57
2022/10/09 00:07:06;;;;;;;;;;;;;;;18.87;51.67;102505.78;5024933;28;19909;-58
2022/10/09 00:09:32;;;;;;;;;;;;;;;18.86;51.65;102510.34;5025051;28;20366;-58
2022/10/09 00:11:57;;;;;;;;;;;;;;;18.86;51.90;102501.38;5024814;28;19914;-58
2022/10/09 00:14:22;;;;;;;;;;;;;;;18.86;51.75;102501.38;5024565;28;19915;-57
2022/10/09 00:16:47;;;;;;;;;;;;;;;18.84;51.75;102500.66;5025181;28;19913;-57
2022/10/09 00:19:12;;;;;;;;;;;;;;;18.84;51.88;102497.97;5024926;28;20507;-58
2022/10/09 00:21:37;;;;;;;;;;;;;;;18.82;51.84;102495.41;5021865;28;19913;-58
2022/10/09 00:24:03;;;;;;;;;;;;;;;18.82;51.63;102498.09;5023986;28;19976;-59
2022/10/09 00:26:28;;;;;;;;;;;;;;;18.81;51.53;102504.44;5024806;28;19915;-58
2022/10/09 00:28:54;;;;;;;;;;;;;;;18.81;51.67;102507.16;5024297;28;19915;-56
2022/10/09 00:31:19;;;;;;;;;;;;;;;18.80;51.79;102510.84;5024809;28;19909;-58
2022/10/09 00:33:44;;;;;;;;;;;;;;;18.80;51.71;102515.38;5024566;28;20011;-58
2022/10/09 00:36:14;;;;;;;;;;;;;;;18.79;51.88;102502.88;5024877;28;19916;-58
2022/10/09 00:38:39;;;;;;;;;;;;;;;18.78;51.75;102503.88;5024588;28;20403;-56
2022/10/09 00:41:05;;;;;;;;;;;;;;;18.78;51.60;102510.13;5024283;28;19928;-58
2022/10/09 00:43:37;;;;;;;;;;;;;;;18.76;51.72;102501.28;5024077;28;20481;-58
2022/10/09 00:46:02;;;;;;;;;;;;;;;18.75;51.93;102504.97;5024677;28;20263;-56
2022/10/09 00:48:27;;;;;;;;;;;;;;;18.75;51.50;102512.22;5024336;28;20416;-57
2022/10/09 00:50:54;;;;;;;;;;;;;;;18.74;51.63;102508.66;5024446;28;19913;-58
2022/10/09 00:53:21;;;;;;;;;;;;;;;18.74;51.56;102505.97;5023570;28;19917;-59
2022/10/09 00:55:46;;;;;;;;;;;;;;;18.73;51.50;102513.19;5007052;28;19916;-59
2022/10/09 00:58:11;;;;;;;;;;;;;;;18.72;51.58;102505.22;5024405;28;19940;-57
2022/10/09 01:00:37;;;;;;;;;;;;;;;18.72;51.48;102505.22;5005885;28;19981;-59
2022/10/09 01:03:02;;;;;;;;;;;;;;;18.70;51.77;102508.06;5024045;28;19909;-58
2022/10/09 01:05:56;;;;;;;;;;;;;;;18.70;51.50;102507.22;5024247;28;20005;-57
2022/10/09 01:08:27;;;;;;;;;;;;;;;18.69;51.69;102511.75;5006925;28;19916;-58
2022/10/09 01:10:58;;;;;;;;;;;;;;;18.68;51.63;102507.28;5024377;28;19952;-59
2022/10/09 01:13:45;;;;;;;;;;;;;;;18.67;51.63;102504.72;5008967;28;19936;-58
2022/10/09 01:16:25;;;;;;;;;;;;;;;18.66;51.32;102511.97;5024345;28;19909;-59
2022/10/09 01:18:58;;;;;;;;;;;;;;;18.66;51.48;102513.81;5022881;28;19909;-58
2022/10/09 01:21:23;;;;;;;;;;;;;;;18.67;51.59;102510.13;5020548;28;19917;-57
2022/10/09 01:23:49;;;;;;;;;;;;;;;18.65;51.66;102501.31;5014299;28;20025;-59
2022/10/09 01:26:15;;;;;;;;;;;;;;;18.64;51.46;102499.59;5004686;28;19933;-58
2022/10/09 01:28:41;;;;;;;;;;;;;;;18.63;51.46;102497.88;5003796;28;20343;-57
2022/10/09 01:31:06;;;;;;;;;;;;;;;18.63;51.64;102497.88;4986879;28;19910;-59
2022/10/09 01:33:31;;;;;;;;;;;;;;;18.61;51.42;102492.63;4986475;28;19921;-58
2022/10/09 01:35:57;;;;;;;;;;;;;;;18.62;51.30;102488.94;4987128;28;19909;-57
2022/10/09 01:38:22;;;;;;;;;;;;;;;18.61;51.54;102486.41;4986591;28;19909;-59
2022/10/09 01:40:48;;;;;;;;;;;;;;;18.60;51.35;102488.22;4986869;28;19918;-56
2022/10/09 01:43:13;;;;;;;;;;;;;;;18.60;51.43;102487.38;4986794;28;19921;-58
2022/10/09 01:45:39;;;;;;;;;;;;;;;18.58;51.69;102484.81;5003876;28;19910;-59
2022/10/09 01:48:04;;;;;;;;;;;;;;;18.58;51.72;102484.81;4986822;28;19920;-57
2022/10/09 01:50:31;;;;;;;;;;;;;;;18.57;51.52;102485.78;4986846;28;19921;-58
2022/10/09 01:52:58;;;;;;;;;;;;;;;18.57;51.47;102479.56;5021289;28;19968;-58
2022/10/09 01:55:29;;;;;;;;;;;;;;;18.57;51.52;102479.56;5006294;28;19913;-57
2022/10/09 01:58:07;;;;;;;;;;;;;;;18.56;51.52;102480.50;4986476;28;19917;-57
2022/10/09 02:00:33;;;;;;;;;;;;;;;18.55;51.50;102481.50;5003705;28;19978;-58
2022/10/09 02:02:58;;;;;;;;;;;;;;;18.54;51.65;102479.81;4986554;28;19910;-58
2022/10/09 02:05:25;;;;;;;;;;;;;;;18.54;51.23;102475.28;5006423;28;19956;-58
2022/10/09 02:07:50;;;;;;;;;;;;;;;18.53;51.50;102473.56;5023477;28;20417;-57
2022/10/09 02:10:15;;;;;;;;;;;;;;;18.53;51.47;102473.56;5023790;28;19909;-59
2022/10/09 02:12:42;;;;;;;;;;;;;;;18.51;51.50;102472.81;5007796;28;19920;-58
2022/10/09 02:15:08;;;;;;;;;;;;;;;18.52;51.50;102465.59;5026958;28;19916;-58
2022/10/09 02:17:34;;;;;;;;;;;;;;;18.50;51.52;102465.72;5009771;28;20014;-56
2022/10/09 02:20:06;;;;;;;;;;;;;;;18.49;51.29;102464.88;5027032;28;19909;-58
2022/10/09 02:22:32;;;;;;;;;;;;;;;18.49;51.42;102467.56;5020095;28;19937;-57
2022/10/09 02:24:57;;;;;;;;;;;;;;;18.48;51.31;102465.88;5027250;28;19964;-58
2022/10/09 02:27:23;;;;;;;;;;;;;;;18.47;51.29;102457.91;5026902;28;19913;-58
2022/10/09 02:29:48;;;;;;;;;;;;;;;18.46;51.41;102465.13;5009076;28;19909;-56
2022/10/09 02:32:13;;;;;;;;;;;;;;;18.46;51.41;102456.19;5026968;28;19973;-57
2022/10/09 02:34:38;;;;;;;;;;;;;;;18.45;51.30;102447.28;5009366;28;20009;-58
2022/10/09 02:37:04;;;;;;;;;;;;;;;18.45;51.29;102454.50;5026936;28;19976;-58
2022/10/09 02:39:29;;;;;;;;;;;;;;;18.44;51.40;102445.56;5026620;28;19917;-58
2022/10/09 02:41:54;;;;;;;;;;;;;;;18.44;51.16;102453.66;5009005;28;19948;-59
2022/10/09 02:44:19;;;;;;;;;;;;;;;18.43;51.29;102453.75;5026613;28;20708;-58
2022/10/09 02:46:44;;;;;;;;;;;;;;;18.42;51.35;102444.81;5026887;28;19913;-58
2022/10/09 02:49:10;;;;;;;;;;;;;;;18.42;51.09;102452.06;5026683;28;19977;-58
2022/10/09 02:51:35;;;;;;;;;;;;;;;18.42;51.08;102446.66;5026359;28;19920;-59
2022/10/09 02:54:00;;;;;;;;;;;;;;;18.40;51.30;102454.03;5026331;28;19984;-57
2022/10/09 02:56:26;;;;;;;;;;;;;;;18.41;51.25;102448.50;5026683;28;19916;-59
2022/10/09 02:58:51;;;;;;;;;;;;;;;18.39;51.16;102449.59;5026101;28;19941;-59
2022/10/09 03:01:16;;;;;;;;;;;;;;;18.38;51.24;102442.50;5026654;28;19910;-58
2022/10/09 03:03:41;;;;;;;;;;;;;;;18.38;51.07;102446.06;5026216;28;19937;-56
2022/10/09 03:06:08;;;;;;;;;;;;;;;18.37;51.34;102449.75;5026303;28;19909;-56
2022/10/09 03:08:33;;;;;;;;;;;;;;;18.37;51.24;102447.06;5026462;28;19916;-58
2022/10/09 03:10:58;;;;;;;;;;;;;;;18.37;51.36;102444.34;5026144;28;19909;-57
2022/10/09 03:13:24;;;;;;;;;;;;;;;18.36;51.20;102444.50;5025888;28;20424;-58
2022/10/09 03:15:49;;;;;;;;;;;;;;;18.35;51.04;102442.75;5026065;28;19915;-58
2022/10/09 03:18:14;;;;;;;;;;;;;;;18.35;51.33;102449.03;5026037;28;19909;-56
2022/10/09 03:20:39;;;;;;;;;;;;;;;18.35;51.25;102445.47;5025452;28;19913;-56
2022/10/09 03:23:04;;;;;;;;;;;;;;;18.34;51.10;102449.13;5025160;28;20384;-57
2022/10/09 03:25:29;;;;;;;;;;;;;;;18.33;51.35;102445.59;5006327;28;19914;-56
2022/10/09 03:27:55;;;;;;;;;;;;;;;18.33;51.25;102437.50;5006034;28;19917;-57
2022/10/09 03:30:20;;;;;;;;;;;;;;;18.33;51.16;102437.50;5005881;28;19909;-58
2022/10/09 03:32:45;;;;;;;;;;;;;;;18.32;51.22;102437.66;5006231;28;19914;-58
2022/10/09 03:35:10;;;;;;;;;;;;;;;18.32;51.28;102434.97;5017040;28;19909;-56
2022/10/09 03:37:35;;;;;;;;;;;;;;;18.31;51.31;102434.09;5025319;28;19909;-58
2022/10/09 03:40:00;;;;;;;;;;;;;;;18.30;51.27;102435.06;5024758;28;19921;-57
2022/10/09 03:42:26;;;;;;;;;;;;;;;18.31;51.27;102435.91;5025167;28;19967;-57
2022/10/09 03:44:51;;;;;;;;;;;;;;;18.30;51.14;102427.00;5031365;28;19913;-57
2022/10/09 03:47:16;;;;;;;;;;;;;;;18.30;51.39;102439.59;5045397;28;19924;-57
2022/10/09 03:49:41;;;;;;;;;;;;;;;18.30;51.05;102439.59;5044502;28;19909;-58
2022/10/09 03:52:06;;;;;;;;;;;;;;;18.29;51.45;102444.13;5012143;28;19917;-57
2022/10/09 03:54:32;;;;;;;;;;;;;;;18.30;51.43;102451.22;5024397;28;19909;-58
2022/10/09 03:56:57;;;;;;;;;;;;;;;18.29;51.45;102444.13;5025273;28;19913;-55
2022/10/09 03:59:22;;;;;;;;;;;;;;;18.29;51.45;102446.84;5024621;28;19914;-56
2022/10/09 04:01:47;;;;;;;;;;;;;;;18.29;51.36;102451.38;5024985;28;19944;-57
2022/10/09 04:04:12;;;;;;;;;;;;;;;18.29;51.66;102451.38;5026917;28;19913;-58
2022/10/09 04:06:37;;;;;;;;;;;;;;;18.28;51.58;102455.91;5018223;28;19909;-56
2022/10/09 04:09:03;;;;;;;;;;;;;;;18.29;51.56;102459.44;5044026;28;19913;-57
2022/10/09 04:11:28;;;;;;;;;;;;;;;18.29;51.36;102456.75;5029780;28;20286;-54
2022/10/09 04:13:53;;;;;;;;;;;;;;;18.29;51.41;102462.97;5024333;28;19915;-54
2022/10/09 04:16:18;;;;;;;;;;;;;;;18.28;51.56;102461.28;5025499;28;19909;-56
2022/10/09 04:18:43;;;;;;;;;;;;;;;18.28;51.43;102457.75;5024925;28;20413;-57
2022/10/09 04:21:09;;;;;;;;;;;;;;;18.28;51.56;102460.44;5024459;28;19914;-57
2022/10/09 04:23:34;;;;;;;;;;;;;;;18.28;51.60;102457.75;5024369;28;19910;-57
2022/10/09 04:25:59;;;;;;;;;;;;;;;18.27;51.32;102454.19;5024648;28;19913;-58
2022/10/09 04:28:25;;;;;;;;;;;;;;;18.28;51.60;102455.03;5024279;28;19939;-57
2022/10/09 04:30:50;;;;;;;;;;;;;;;18.28;51.53;102453.19;5006621;28;19959;-57
2022/10/09 04:33:16;;;;;;;;;;;;;;;18.28;51.49;102449.66;5024407;28;20052;-55
2022/10/09 04:35:41;;;;;;;;;;;;;;;18.26;51.56;102444.38;5024084;28;19909;-59
2022/10/09 04:38:06;;;;;;;;;;;;;;;18.27;51.91;102443.41;5024013;28;19913;-57
2022/10/09 04:40:32;;;;;;;;;;;;;;;18.28;51.72;102444.28;5024091;28;19917;-55
2022/10/09 04:42:57;;;;;;;;;;;;;;;18.27;51.79;102445.25;5025450;28;19910;-60
2022/10/09 04:45:22;;;;;;;;;;;;;;;18.27;51.67;102439.88;4999582;28;19913;-58
2022/10/09 04:47:47;;;;;;;;;;;;;;;18.27;51.94;102439.88;5020327;28;20289;-55
2022/10/09 04:50:13;;;;;;;;;;;;;;;18.27;51.82;102438.03;5023601;28;19916;-55
2022/10/09 04:52:39;;;;;;;;;;;;;;;18.28;51.96;102431.66;5023762;28;19936;-58
2022/10/09 04:55:04;;;;;;;;;;;;;;;18.28;52.02;102431.66;5023532;28;19909;-58
2022/10/09 04:57:29;;;;;;;;;;;;;;;18.27;51.93;102432.66;5023705;28;19916;-56
2022/10/09 04:59:54;;;;;;;;;;;;;;;18.28;51.79;102431.66;5023621;28;20007;-57
2022/10/09 05:02:20;;;;;;;;;;;;;;;18.27;51.97;102427.28;5023496;28;19992;-57
2022/10/09 05:04:45;;;;;;;;;;;;;;;18.28;51.79;102428.13;5004494;28;20286;-58
2022/10/09 05:07:10;;;;;;;;;;;;;;;18.28;51.79;102428.13;5019723;28;19909;-58
2022/10/09 05:09:35;;;;;;;;;;;;;;;18.28;51.77;102428.13;5004565;28;19917;-57
2022/10/09 05:12:00;;;;;;;;;;;;;;;18.27;51.76;102429.97;5022439;28;19917;-57
2022/10/09 05:14:26;;;;;;;;;;;;;;;18.27;51.93;102427.28;5022386;28;20314;-57
2022/10/09 05:16:51;;;;;;;;;;;;;;;18.27;51.67;102431.81;5004895;28;19914;-58
2022/10/09 05:19:16;;;;;;;;;;;;;;;18.27;51.80;102431.81;5005368;28;19909;-56
2022/10/09 05:21:42;;;;;;;;;;;;;;;18.25;51.94;102429.22;5022868;28;19914;-59
2022/10/09 05:24:07;;;;;;;;;;;;;;;18.26;51.72;102430.06;5022712;28;19997;-58
2022/10/09 05:26:32;;;;;;;;;;;;;;;18.26;51.83;102425.53;5023060;28;19917;-58
2022/10/09 05:28:57;;;;;;;;;;;;;;;18.25;51.74;102426.53;5022174;28;19917;-57
2022/10/09 05:31:26;;;;;;;;;;;;;;;18.23;51.73;102426.66;5004946;28;19913;-57
2022/10/09 05:33:52;;;;;;;;;;;;;;;18.26;51.68;102430.06;5022477;28;19935;-58
2022/10/09 05:36:17;;;;;;;;;;;;;;;18.24;51.59;102433.75;5022907;28;19964;-57
2022/10/09 05:38:42;;;;;;;;;;;;;;;18.23;51.52;102429.34;5022620;28;19920;-58
2022/10/09 05:41:09;;;;;;;;;;;;;;;18.24;51.46;102428.38;5022408;28;19940;-57
2022/10/09 05:43:35;;;;;;;;;;;;;;;18.22;51.77;102408.81;5022279;28;19924;-58
2022/10/09 05:46:05;;;;;;;;;;;;;;;18.23;51.60;102420.44;5023851;28;19996;-57
2022/10/09 05:48:30;;;;;;;;;;;;;;;18.23;51.67;102423.13;5028324;28;19916;-57
2022/10/09 05:51:04;;;;;;;;;;;;;;;18.22;51.90;102414.19;5027941;28;19913;-56
2022/10/09 05:53:29;;;;;;;;;;;;;;;18.23;51.52;102417.75;5033656;28;19917;-58
2022/10/09 05:55:54;;;;;;;;;;;;;;;18.22;51.69;102416.00;5035824;28;19963;-57
2022/10/09 05:58:20;;;;;;;;;;;;;;;18.22;51.65;102424.97;5034291;28;19918;-57
2022/10/09 06:00:45;;;;;;;;;;;;;;;18.22;51.54;102416.00;5034358;28;19917;-57
2022/10/09 06:03:10;;;;;;;;;;;;;;;18.22;51.65;102422.28;5031406;28;19917;-54
2022/10/09 06:05:35;;;;;;;;;;;;;;;18.22;51.69;102421.38;5026253;28;19913;-57
2022/10/09 06:08:00;;;;;;;;;;;;;;;18.22;51.53;102424.09;5026082;28;19910;-57
2022/10/09 06:10:26;;;;;;;;;;;;;;;18.22;51.50;102426.78;5026130;28;19909;-57
2022/10/09 06:12:51;;;;;;;;;;;;;;;18.21;51.55;102428.63;5032989;28;19948;-55
2022/10/09 06:15:16;;;;;;;;;;;;;;;18.21;51.58;102428.63;5023491;28;19939;-55
2022/10/09 06:17:41;;;;;;;;;;;;;;;18.20;51.67;102432.28;5009292;28;19920;-55
2022/10/09 06:20:06;;;;;;;;;;;;;;;18.20;51.38;102434.97;5023366;28;19917;-59
2022/10/09 06:22:32;;;;;;;;;;;;;;;18.20;51.64;102434.97;5031849;28;19921;-57
2022/10/09 06:24:57;;;;;;;;;;;;;;;18.21;51.68;102444.75;5021692;28;19921;-58
2022/10/09 06:27:22;;;;;;;;;;;;;;;18.21;51.58;102438.53;5025912;28;20279;-57
2022/10/09 06:29:47;;;;;;;;;;;;;;;18.22;51.68;102445.63;5024719;28;19937;-57
2022/10/09 06:32:12;;;;;;;;;;;;;;;18.21;51.64;102439.38;5027822;28;19924;-58
2022/10/09 06:34:37;;;;;;;;;;;;;;;18.23;51.73;102455.44;5025741;28;19917;-58
2022/10/09 06:37:03;;;;;;;;;;;;;;;18.23;51.63;102444.66;5015762;28;19913;-57
2022/10/09 06:39:28;;;;;;;;;;;;;;;18.24;51.49;102451.75;5024770;28;20671;-59
2022/10/09 06:41:53;;;;;;;;;;;;;;;18.23;51.49;102450.91;5025287;28;19921;-59
2022/10/09 06:44:18;;;;;;;;;;;;;;;18.26;51.87;102448.91;5025742;28;19910;-58
2022/10/09 06:46:44;;;;;;;;;;;;;;;18.27;51.76;102450.66;5024397;28;20051;-57
2022/10/09 06:49:09;;;;;;;;;;;;;;;18.26;51.58;102449.78;5028061;28;20009;-58
2022/10/09 06:51:35;;;;;;;;;;;;;;;18.27;51.56;102451.50;5025426;28;20937;-56
2022/10/09 06:54:01;;;;;;;;;;;;;;;18.27;51.82;102454.19;5025757;28;19925;-59
2022/10/09 06:56:27;;;;;;;;;;;;;;;18.29;51.90;102451.38;5025584;28;19909;-59
2022/10/09 06:58:53;;;;;;;;;;;;;;;18.30;51.65;102455.75;5023679;28;19914;-59
2022/10/09 07:01:19;;;;;;;;;;;;;;;18.30;51.68;102458.44;5024709;28;19909;-58
2022/10/09 07:03:45;;;;;;;;;;;;;;;18.30;51.77;102458.44;5025101;28;19921;-58
2022/10/09 07:06:18;;;;;;;;;;;;;;;18.31;51.89;102455.66;5025284;28;19909;-58
2022/10/09 07:08:44;;;;;;;;;;;;;;;18.32;51.73;102451.97;5024747;28;19917;-59
2022/10/09 07:11:13;;;;;;;;;;;;;;;18.32;51.66;102462.75;5024888;28;19913;-57
2022/10/09 07:13:40;;;;;;;;;;;;;;;18.34;51.64;102468.84;5033092;28;19912;-59
2022/10/09 07:16:05;;;;;;;;;;;;;;;18.35;51.68;102467.00;5032832;28;19921;-59
2022/10/09 07:18:31;;;;;;;;;;;;;;;18.35;51.62;102461.59;5025099;28;19932;-59
2022/10/09 07:20:58;;;;;;;;;;;;;;;18.35;51.49;102462.50;5024394;28;19958;-59
2022/10/09 07:23:23;;;;;;;;;;;;;;;18.36;51.57;102464.19;5024956;28;19998;-59
2022/10/09 07:25:49;;;;;;;;;;;;;;;18.37;51.38;102465.03;5024966;28;19913;-59
2022/10/09 07:28:14;;;;;;;;;;;;;;;18.37;51.56;102457.81;5024163;28;19917;-59
2022/10/09 07:30:39;;;;;;;;;;;;;;;18.38;51.30;102459.53;5026031;28;19976;-61
2022/10/09 07:33:04;;;;;;;;;;;;;;;18.38;51.43;102469.44;5033291;28;19967;-59
2022/10/09 07:35:29;;;;;;;;;;;;;;;18.39;51.74;102466.66;5024642;28;19940;-58
2022/10/09 07:37:55;;;;;;;;;;;;;;;18.41;51.25;102461.13;5023810;28;19914;-59
2022/10/09 07:40:20;;;;;;;;;;;;;;;18.40;51.54;102462.97;5024718;28;20007;-59
2022/10/09 07:42:45;;;;;;;;;;;;;;;18.41;51.40;102463.81;5023939;28;19921;-59
2022/10/09 07:45:10;;;;;;;;;;;;;;;18.42;51.43;102463.66;5023999;28;20021;-58
2022/10/09 07:47:35;;;;;;;;;;;;;;;18.43;51.60;102461.84;5024569;28;19909;-59
2022/10/09 07:50:01;;;;;;;;;;;;;;;18.44;51.56;102460.88;5024158;28;19921;-59
2022/10/09 07:52:26;;;;;;;;;;;;;;;18.46;51.46;102457.06;5024536;28;19909;-59
2022/10/09 07:54:51;;;;;;;;;;;;;;;18.48;51.64;102465.88;5014679;28;19925;-58
2022/10/09 07:57:16;;;;;;;;;;;;;;;18.51;51.60;102466.59;5015037;28;20358;-57
2022/10/09 07:59:42;;;;;;;;;;;;;;;18.52;51.70;102455.69;5023259;28;20481;-56
2022/10/09 08:02:07;;;;;;;;;;;;;;;18.56;51.51;102475.97;5024864;28;19913;-56
2022/10/09 08:04:32;;;;;;;;;;;;;;;18.58;51.26;102459.72;5024751;28;19981;-57
2022/10/09 08:06:58;;;;;;;;;;;;;;;18.60;51.19;102461.28;5024870;28;20113;-57
2022/10/09 08:09:24;;;;;;;;;;;;;;;18.62;51.29;102462.00;5016255;28;19914;-56
2022/10/09 08:11:49;;;;;;;;;;;;;;;18.65;51.01;102461.75;5005218;28;19917;-57
2022/10/09 08:14:14;;;;;;;;;;;;;;;18.66;50.92;102465.31;5017409;28;19956;-55
2022/10/09 08:16:39;;;;;;;;;;;;;;;18.67;50.75;102456.25;5012046;28;19937;-56
2022/10/09 08:19:04;;;;;;;;;;;;;;;18.69;50.73;102463.25;5005145;28;19920;-57
2022/10/09 08:21:31;;;;;;;;;;;;;;;18.71;50.72;102466.66;5015774;28;19917;-57
2022/10/09 08:23:57;;;;;;;;;;;;;;;18.74;50.40;102457.47;5024450;28;19914;-57
2022/10/09 08:26:23;;;;;;;;;;;;;;;18.76;50.60;102460.03;5024720;28;19956;-58
2022/10/09 08:28:49;;;;;;;;;;;;;;;18.80;50.30;102456.09;5026072;28;20394;-58
2022/10/09 08:31:15;;;;;;;;;;;;;;;18.82;50.39;102449.59;5023686;28;19948;-58
2022/10/09 08:33:40;;;;;;;;;;;;;;;18.87;50.14;102449.19;5036470;28;19920;-57
2022/10/09 08:36:06;;;;;;;;;;;;;;;18.92;50.11;102450.50;5025387;28;19917;-58
2022/10/09 08:38:31;;;;;;;;;;;;;;;18.96;49.87;102449.25;5026461;28;19955;-59
2022/10/09 08:40:58;;;;;;;;;;;;;;;19.03;49.97;102440.63;5025015;28;19991;-57
2022/10/09 08:43:27;;;;;;;;;;;;;;;19.08;50.21;102441.97;5006888;28;19913;-58
2022/10/09 08:45:52;;;;;;;;;;;;;;;19.13;49.88;102431.63;5023838;28;19913;-57
2022/10/09 08:48:19;;;;;;;;;;;;;;;19.18;49.87;102432.06;5024608;28;19932;-58
2022/10/09 08:50:49;;;;;;;;;;;;;;;19.24;49.88;102436.06;5005918;28;19917;-58
2022/10/09 08:53:20;;;;;;;;;;;;;;;19.30;49.36;102435.56;5005976;28;19913;-58
2022/10/09 08:55:49;;;;;;;;;;;;;;;19.36;49.56;102418.81;5024249;28;19925;-58
2022/10/09 08:58:15;;;;;;;;;;;;;;;19.41;49.29;102413.03;5005988;28;20329;-58
2022/10/09 09:00:44;;;;;;;;;;;;;;;19.46;49.39;102419.75;5005047;28;19914;-58
2022/10/09 09:03:28;;;;;;;;;;;;;;;19.50;48.92;102414.94;4992628;28;19985;-55
2022/10/09 09:05:58;;;;;;;;;;;;;;;19.55;48.82;102415.38;5023917;28;19957;-55
2022/10/09 09:08:36;;;;;;;;;;;;;;;19.59;48.86;102410.56;5019127;28;19963;-54
2022/10/09 09:11:16;;;;;;;;;;;;;;;19.63;48.50;102414.72;5023501;28;19985;-57
2022/10/09 09:13:50;;;;;;;;;;;;;;;19.66;48.75;102417.97;4997733;28;20397;-58
2022/10/09 09:16:19;;;;;;;;;;;;;;;19.68;48.53;102401.66;5002217;28;19924;-58
2022/10/09 09:18:48;;;;;;;;;;;;;;;19.70;48.41;102415.84;5024237;28;19909;-57
2022/10/09 09:21:34;;;;;;;;;;;;;;;19.71;48.10;102406.81;5009259;28;19928;-58
2022/10/09 09:23:59;;;;;;;;;;;;;;;19.73;48.43;102411.06;5008040;28;19917;-58
2022/10/09 09:26:25;;;;;;;;;;;;;;;19.72;48.34;102400.41;5030536;28;19923;-57
2022/10/09 09:28:59;;;;;;;;;;;;;;;19.72;48.03;102400.41;5012372;28;19973;-58
2022/10/09 09:31:25;;;;;;;;;;;;;;;19.71;48.22;102396.84;5012509;28;19967;-58
2022/10/09 09:34:10;;;;;;;;;;;;;;;19.70;48.30;102396.97;5012490;28;19921;-58
2022/10/09 09:36:39;;;;;;;;;;;;;;;19.68;48.23;102396.28;5012382;28;19932;-57
2022/10/09 09:39:05;;;;;;;;;;;;;;;19.66;48.34;102388.28;5012045;28;19928;-55
2022/10/09 09:41:30;;;;;;;;;;;;;;;19.65;48.19;102386.59;5029853;28;19917;-56
2022/10/09 09:43:55;;;;;;;;;;;;;;;19.64;48.36;102381.34;5029697;28;20374;-57
2022/10/09 09:46:22;;;;;;;;;;;;;;;19.63;48.34;102379.66;5030037;28;19913;-55
2022/10/09 09:48:47;;;;;;;;;;;;;;;19.61;48.56;102382.47;5030332;28;19909;-56
2022/10/09 09:51:24;;;;;;;;;;;;;;;19.59;48.53;102380.88;5030130;28;19920;-55
2022/10/09 09:53:56;;;;;;;;;;;;;;;19.59;48.66;102370.09;5005148;28;19917;-54
2022/10/09 09:56:30;;;;;;;;;;;;;;;19.58;48.79;102368.34;5029571;28;19917;-57
2022/10/09 09:58:55;;;;;;;;;;;;;;;19.57;48.65;102366.66;5005858;28;19916;-54
2022/10/09 10:01:25;;;;;;;;;;;;;;;19.57;48.67;102366.66;5029312;28;19913;-55
2022/10/09 10:03:52;;;;;;;;;;;;;;;19.56;48.71;102362.25;5012545;28;19916;-56
2022/10/09 10:06:21;;;;;;;;;;;;;;;19.55;48.93;102358.72;5029619;28;19914;-57
2022/10/09 10:08:56;;;;;;;;;;;;;;;19.54;48.76;102357.00;5026242;28;19913;-59
2022/10/09 10:11:21;;;;;;;;;;;;;;;19.54;48.71;102357.00;5028674;28;19920;-58
2022/10/09 10:13:48;;;;;;;;;;;;;;;19.53;49.01;102344.50;5014808;28;19913;-58
2022/10/09 10:16:19;;;;;;;;;;;;;;;19.53;49.05;102349.03;5029098;28;19913;-60
2022/10/09 10:18:44;;;;;;;;;;;;;;;19.53;49.21;102349.03;5028476;28;19920;-60
2022/10/09 10:21:13;;;;;;;;;;;;;;;19.53;49.34;102346.34;5033591;28;19909;-57
2022/10/09 10:23:43;;;;;;;;;;;;;;;19.52;49.15;102342.78;5019229;28;19985;-60
2022/10/09 10:26:11;;;;;;;;;;;;;;;19.53;49.07;102343.66;5011751;28;19913;-59
2022/10/09 10:28:40;;;;;;;;;;;;;;;19.53;49.24;102335.56;5044751;28;19920;-61
2022/10/09 10:31:05;;;;;;;;;;;;;;;19.51;49.27;102335.69;5012096;28;19925;-60
2022/10/09 10:33:31;;;;;;;;;;;;;;;19.53;49.37;102336.41;5007898;28;19909;-59
2022/10/09 10:35:56;;;;;;;;;;;;;;;19.52;49.17;102325.75;5008569;28;19923;-59
2022/10/09 10:38:22;;;;;;;;;;;;;;;19.52;49.22;102320.38;5009246;28;19920;-60
2022/10/09 10:41:06;;;;;;;;;;;;;;;19.51;49.24;102319.50;5005039;28;19945;-60
2022/10/09 10:43:40;;;;;;;;;;;;;;;19.52;49.31;102315.81;5024750;28;19921;-59
2022/10/09 10:46:12;;;;;;;;;;;;;;;19.52;49.44;102315.81;5008951;28;19920;-59
2022/10/09 10:48:45;;;;;;;;;;;;;;;19.52;49.30;102313.13;5026441;28;19913;-60
2022/10/09 10:51:30;;;;;;;;;;;;;;;19.52;49.41;102318.50;5009139;28;19924;-59
2022/10/09 10:53:55;;;;;;;;;;;;;;;19.52;49.39;102310.41;5026136;28;19984;-59
2022/10/09 10:56:30;;;;;;;;;;;;;;;19.52;49.68;102299.63;5026526;28;19917;-60
2022/10/09 10:58:59;;;;;;;;;;;;;;;19.52;49.65;102305.03;5025909;28;19919;-59
2022/10/09 11:01:25;;;;;;;;;;;;;;;19.52;49.54;102296.09;5025807;28;19918;-60
2022/10/09 11:04:06;;;;;;;;;;;;;;;19.53;49.59;102287.84;5026256;28;19910;-60
2022/10/09 11:06:40;;;;;;;;;;;;;;;19.52;49.88;102288.84;5026004;28;20289;-60
2022/10/09 11:09:11;;;;;;;;;;;;;;;19.53;49.74;102277.03;5008749;28;19913;-60
2022/10/09 11:11:47;;;;;;;;;;;;;;;19.54;49.99;102277.91;5025805;28;19921;-60
2022/10/09 11:14:25;;;;;;;;;;;;;;;19.55;49.96;102266.13;5018765;28;19913;-59
2022/10/09 11:16:59;;;;;;;;;;;;;;;19.55;49.80;102266.13;5026012;28;19917;-59
2022/10/09 11:19:28;;;;;;;;;;;;;;;19.55;49.92;102267.00;5026250;28;19916;-59
2022/10/09 11:22:12;;;;;;;;;;;;;;;19.57;50.13;102261.44;4991532;28;19913;-59
2022/10/09 11:24:37;;;;;;;;;;;;;;;19.57;50.02;102267.69;5025349;28;19972;-60
2022/10/09 11:27:09;;;;;;;;;;;;;;;19.58;50.09;102260.44;5025624;28;19920;-60
2022/10/09 11:29:43;;;;;;;;;;;;;;;19.60;50.35;102253.94;5007816;28;20283;-58
2022/10/09 11:32:12;;;;;;;;;;;;;;;19.61;50.33;102249.41;5007913;28;19937;-59
2022/10/09 11:34:38;;;;;;;;;;;;;;;19.62;50.35;102245.72;5007865;28;19931;-59
2022/10/09 11:37:06;;;;;;;;;;;;;;;19.63;50.19;102242.91;5025505;28;19913;-60
2022/10/09 11:39:31;;;;;;;;;;;;;;;19.64;50.32;102239.19;5007007;28;19920;-59
2022/10/09 11:41:56;;;;;;;;;;;;;;;19.65;50.26;102235.50;5007519;28;19917;-59
2022/10/09 11:44:24;;;;;;;;;;;;;;;19.67;50.36;102229.97;5024567;28;19956;-59
2022/10/09 11:47:12;;;;;;;;;;;;;;;19.69;50.53;102234.22;5007925;28;19932;-58
2022/10/09 11:49:50;;;;;;;;;;;;;;;19.70;50.42;102222.41;5016577;28;19960;-60
2022/10/09 11:52:15;;;;;;;;;;;;;;;19.72;50.39;102225.00;5025546;28;19935;-58
2022/10/09 11:54:40;;;;;;;;;;;;;;;19.73;50.44;102211.34;5024793;28;19976;-57
2022/10/09 11:57:06;;;;;;;;;;;;;;;19.75;50.32;102207.66;5025125;28;20390;-60
2022/10/09 11:59:34;;;;;;;;;;;;;;;19.76;50.61;102196.75;5007021;28;19913;-56
2022/10/09 12:02:00;;;;;;;;;;;;;;;19.78;50.35;102196.59;5025323;28;19948;-58
2022/10/09 12:04:32;;;;;;;;;;;;;;;19.79;50.46;102195.59;5024307;28;19917;-60
2022/10/09 12:06:59;;;;;;;;;;;;;;;19.80;50.39;102189.22;5024950;28;19913;-60
2022/10/09 12:09:43;;;;;;;;;;;;;;;19.81;50.66;102182.81;5007694;28;20011;-59
2022/10/09 12:12:14;;;;;;;;;;;;;;;19.83;50.24;102173.56;5024741;28;19921;-61
2022/10/09 12:14:39;;;;;;;;;;;;;;;19.84;50.49;102180.69;5007775;28;19977;-61
2022/10/09 12:17:20;;;;;;;;;;;;;;;19.86;50.52;102167.03;5019099;28;19921;-60
2022/10/09 12:19:45;;;;;;;;;;;;;;;19.86;50.53;102167.03;5024578;28;19988;-61
2022/10/09 12:22:10;;;;;;;;;;;;;;;19.87;50.50;102166.03;5024797;28;19920;-61
2022/10/09 12:24:39;;;;;;;;;;;;;;;19.88;50.29;102156.94;5024214;28;19914;-60
2022/10/09 12:27:05;;;;;;;;;;;;;;;19.89;50.34;102150.56;5024839;28;19924;-59
2022/10/09 12:29:32;;;;;;;;;;;;;;;19.90;50.47;102150.41;5023934;28;19913;-61
2022/10/09 12:31:58;;;;;;;;;;;;;;;19.90;50.26;102139.59;5024712;28;19905;-60
2022/10/09 12:34:28;;;;;;;;;;;;;;;19.91;50.24;102135.06;5006646;28;19945;-59
2022/10/09 12:37:13;;;;;;;;;;;;;;;19.92;50.39;102131.34;5007239;28;19909;-59